sensor_id;sensor_type;location;lat;lon;timestamp;P1;durP1;ratioP1;P2;durP2;ratioP2
30896;SDS011;17597;52.246;21.054;2022-07-29T00:00:59;6.38;;;3.13;;
30896;SDS011;17597;52.246;21.054;2022-07-29T00:03:25;11.23;;;2.88;;
30896;SDS011;17597;52.246;21.054;2022-07-29T00:05:50;5.68;;;3.22;;
30896;SDS011;17597;52.246;21.054;2022-07-29T00:08:17;8.20;;;3.20;;
30896;SDS011;17597;52.246;21.054;2022-07-29T00:10:43;6.30;;;3.13;;
30896;SDS011;17597;52.246;21.054;2022-07-29T00:13:08;7.80;;;3.10;;
30896;SDS011;17597;52.246;21.054;2022-07-29T00:15:34;7.03;;;3.08;;
30896;SDS011;17597;52.246;21.054;2022-07-29T00:17:59;10.15;;;3.08;;
30896;SDS011;17597;52.246;21.054;2022-07-29T00:20:24;9.50;;;3.28;;
30896;SDS011;17597;52.246;21.054;2022-07-29T00:22:50;8.13;;;3.60;;
30896;SDS011;17597;52.246;21.054;2022-07-29T00:25:15;5.43;;;2.97;;
30896;SDS011;17597;52.246;21.054;2022-07-29T00:27:40;6.47;;;3.00;;
30896;SDS011;17597;52.246;21.054;2022-07-29T00:30:06;17.10;;;3.30;;
30896;SDS011;17597;52.246;21.054;2022-07-29T00:32:32;6.88;;;2.75;;
30896;SDS011;17597;52.246;21.054;2022-07-29T00:34:58;6.45;;;3.00;;
30896;SDS011;17597;52.246;21.054;2022-07-29T00:37:42;6.32;;;3.08;;
30896;SDS011;17597;52.246;21.054;2022-07-29T00:40:08;10.52;;;3.75;;
30896;SDS011;17597;52.246;21.054;2022-07-29T00:42:47;7.18;;;3.08;;
30896;SDS011;17597;52.246;21.054;2022-07-29T00:45:14;4.82;;;2.58;;
30896;SDS011;17597;52.246;21.054;2022-07-29T00:47:41;5.00;;;2.70;;
30896;SDS011;17597;52.246;21.054;2022-07-29T00:50:07;8.00;;;2.80;;
30896;SDS011;17597;52.246;21.054;2022-07-29T00:52:37;6.60;;;2.95;;
30896;SDS011;17597;52.246;21.054;2022-07-29T00:55:05;9.43;;;2.83;;
30896;SDS011;17597;52.246;21.054;2022-07-29T00:57:34;7.30;;;2.75;;
30896;SDS011;17597;52.246;21.054;2022-07-29T01:00:00;7.03;;;3.03;;
30896;SDS011;17597;52.246;21.054;2022-07-29T01:02:27;6.78;;;2.70;;
30896;SDS011;17597;52.246;21.054;2022-07-29T01:04:53;5.07;;;2.78;;
30896;SDS011;17597;52.246;21.054;2022-07-29T01:07:18;6.00;;;2.60;;
30896;SDS011;17597;52.246;21.054;2022-07-29T01:09:45;7.03;;;2.63;;
30896;SDS011;17597;52.246;21.054;2022-07-29T01:12:11;7.80;;;3.33;;
30896;SDS011;17597;52.246;21.054;2022-07-29T01:14:46;8.13;;;3.45;;
30896;SDS011;17597;52.246;21.054;2022-07-29T01:17:15;5.30;;;2.63;;
30896;SDS011;17597;52.246;21.054;2022-07-29T01:20:23;5.07;;;2.55;;
30896;SDS011;17597;52.246;21.054;2022-07-29T01:23:11;9.32;;;3.00;;
30896;SDS011;17597;52.246;21.054;2022-07-29T01:28:45;7.03;;;2.90;;
30896;SDS011;17597;52.246;21.054;2022-07-29T01:31:35;4.93;;;2.30;;
30896;SDS011;17597;52.246;21.054;2022-07-29T01:34:09;6.18;;;2.75;;
30896;SDS011;17597;52.246;21.054;2022-07-29T01:36:43;9.13;;;2.30;;
30896;SDS011;17597;52.246;21.054;2022-07-29T01:39:26;7.07;;;2.92;;
30896;SDS011;17597;52.246;21.054;2022-07-29T01:41:57;4.63;;;2.45;;
30896;SDS011;17597;52.246;21.054;2022-07-29T01:44:34;5.28;;;2.72;;
30896;SDS011;17597;52.246;21.054;2022-07-29T01:47:06;8.30;;;2.65;;
30896;SDS011;17597;52.246;21.054;2022-07-29T01:49:38;6.88;;;2.55;;
30896;SDS011;17597;52.246;21.054;2022-07-29T01:52:13;7.13;;;2.67;;
30896;SDS011;17597;52.246;21.054;2022-07-29T01:54:45;5.28;;;2.78;;
30896;SDS011;17597;52.246;21.054;2022-07-29T01:57:21;7.85;;;2.80;;
30896;SDS011;17597;52.246;21.054;2022-07-29T01:59:51;6.07;;;2.83;;
30896;SDS011;17597;52.246;21.054;2022-07-29T02:02:18;5.93;;;2.67;;
30896;SDS011;17597;52.246;21.054;2022-07-29T02:04:45;6.13;;;2.78;;
30896;SDS011;17597;52.246;21.054;2022-07-29T02:07:14;7.25;;;2.78;;
30896;SDS011;17597;52.246;21.054;2022-07-29T02:09:43;7.20;;;2.92;;
30896;SDS011;17597;52.246;21.054;2022-07-29T02:12:10;7.55;;;3.00;;
30896;SDS011;17597;52.246;21.054;2022-07-29T02:14:40;4.53;;;2.42;;
30896;SDS011;17597;52.246;21.054;2022-07-29T02:17:10;8.38;;;2.63;;
30896;SDS011;17597;52.246;21.054;2022-07-29T02:19:37;8.95;;;2.88;;
30896;SDS011;17597;52.246;21.054;2022-07-29T02:22:03;4.18;;;2.53;;
30896;SDS011;17597;52.246;21.054;2022-07-29T02:24:32;6.43;;;2.80;;
30896;SDS011;17597;52.246;21.054;2022-07-29T02:27:00;6.22;;;3.03;;
30896;SDS011;17597;52.246;21.054;2022-07-29T02:29:28;6.63;;;2.70;;
30896;SDS011;17597;52.246;21.054;2022-07-29T02:31:55;7.05;;;2.97;;
30896;SDS011;17597;52.246;21.054;2022-07-29T02:34:23;5.72;;;2.60;;
30896;SDS011;17597;52.246;21.054;2022-07-29T02:36:50;4.18;;;2.50;;
30896;SDS011;17597;52.246;21.054;2022-07-29T02:39:17;5.63;;;2.72;;
30896;SDS011;17597;52.246;21.054;2022-07-29T02:41:46;7.35;;;2.75;;
30896;SDS011;17597;52.246;21.054;2022-07-29T02:44:21;5.18;;;2.53;;
30896;SDS011;17597;52.246;21.054;2022-07-29T02:46:50;5.38;;;2.47;;
30896;SDS011;17597;52.246;21.054;2022-07-29T02:52:02;7.15;;;2.45;;
30896;SDS011;17597;52.246;21.054;2022-07-29T02:54:39;4.47;;;2.72;;
30896;SDS011;17597;52.246;21.054;2022-07-29T02:57:11;5.75;;;2.17;;
30896;SDS011;17597;52.246;21.054;2022-07-29T02:59:43;6.85;;;2.47;;
30896;SDS011;17597;52.246;21.054;2022-07-29T03:02:13;4.40;;;2.60;;
30896;SDS011;17597;52.246;21.054;2022-07-29T03:04:40;6.40;;;2.35;;
30896;SDS011;17597;52.246;21.054;2022-07-29T03:07:07;5.93;;;2.60;;
30896;SDS011;17597;52.246;21.054;2022-07-29T03:09:35;5.20;;;2.70;;
30896;SDS011;17597;52.246;21.054;2022-07-29T03:12:03;5.97;;;2.55;;
30896;SDS011;17597;52.246;21.054;2022-07-29T03:14:29;8.55;;;2.53;;
30896;SDS011;17597;52.246;21.054;2022-07-29T03:16:56;4.68;;;2.78;;
30896;SDS011;17597;52.246;21.054;2022-07-29T03:19:23;8.30;;;2.70;;
30896;SDS011;17597;52.246;21.054;2022-07-29T03:21:48;4.47;;;2.60;;
30896;SDS011;17597;52.246;21.054;2022-07-29T03:24:33;6.05;;;2.70;;
30896;SDS011;17597;52.246;21.054;2022-07-29T03:27:00;4.97;;;2.60;;
30896;SDS011;17597;52.246;21.054;2022-07-29T03:29:27;6.82;;;2.88;;
30896;SDS011;17597;52.246;21.054;2022-07-29T03:31:53;4.18;;;2.28;;
30896;SDS011;17597;52.246;21.054;2022-07-29T03:34:18;4.18;;;2.30;;
30896;SDS011;17597;52.246;21.054;2022-07-29T03:36:44;9.25;;;2.50;;
30896;SDS011;17597;52.246;21.054;2022-07-29T03:39:09;6.93;;;2.90;;
30896;SDS011;17597;52.246;21.054;2022-07-29T03:41:37;4.68;;;2.50;;
30896;SDS011;17597;52.246;21.054;2022-07-29T03:44:06;5.38;;;2.60;;
30896;SDS011;17597;52.246;21.054;2022-07-29T03:46:32;6.13;;;2.83;;
30896;SDS011;17597;52.246;21.054;2022-07-29T03:49:01;8.80;;;2.50;;
30896;SDS011;17597;52.246;21.054;2022-07-29T03:51:29;5.70;;;2.75;;
30896;SDS011;17597;52.246;21.054;2022-07-29T03:53:56;6.88;;;2.67;;
30896;SDS011;17597;52.246;21.054;2022-07-29T03:56:21;5.95;;;3.05;;
30896;SDS011;17597;52.246;21.054;2022-07-29T03:58:51;4.30;;;2.80;;
30896;SDS011;17597;52.246;21.054;2022-07-29T04:01:17;8.15;;;2.67;;
30896;SDS011;17597;52.246;21.054;2022-07-29T04:03:44;6.30;;;2.95;;
30896;SDS011;17597;52.246;21.054;2022-07-29T04:06:11;7.47;;;2.97;;
30896;SDS011;17597;52.246;21.054;2022-07-29T04:08:36;4.93;;;2.60;;
30896;SDS011;17597;52.246;21.054;2022-07-29T04:11:03;8.35;;;3.00;;
30896;SDS011;17597;52.246;21.054;2022-07-29T04:13:30;6.85;;;3.20;;
30896;SDS011;17597;52.246;21.054;2022-07-29T04:15:56;7.45;;;3.30;;
30896;SDS011;17597;52.246;21.054;2022-07-29T04:18:22;7.70;;;3.20;;
30896;SDS011;17597;52.246;21.054;2022-07-29T04:20:48;10.48;;;2.75;;
30896;SDS011;17597;52.246;21.054;2022-07-29T04:23:13;6.82;;;3.20;;
30896;SDS011;17597;52.246;21.054;2022-07-29T04:25:39;5.10;;;3.10;;
30896;SDS011;17597;52.246;21.054;2022-07-29T04:28:07;6.75;;;2.72;;
30896;SDS011;17597;52.246;21.054;2022-07-29T04:30:34;3.80;;;2.40;;
30896;SDS011;17597;52.246;21.054;2022-07-29T04:33:01;4.25;;;2.28;;
30896;SDS011;17597;52.246;21.054;2022-07-29T04:35:28;8.43;;;2.58;;
30896;SDS011;17597;52.246;21.054;2022-07-29T04:37:54;5.82;;;2.53;;
30896;SDS011;17597;52.246;21.054;2022-07-29T04:40:20;7.35;;;2.72;;
30896;SDS011;17597;52.246;21.054;2022-07-29T04:42:45;9.20;;;2.20;;
30896;SDS011;17597;52.246;21.054;2022-07-29T04:45:10;4.65;;;2.30;;
30896;SDS011;17597;52.246;21.054;2022-07-29T04:47:36;5.00;;;2.47;;
30896;SDS011;17597;52.246;21.054;2022-07-29T04:50:01;6.15;;;2.30;;
30896;SDS011;17597;52.246;21.054;2022-07-29T04:52:27;9.45;;;2.15;;
30896;SDS011;17597;52.246;21.054;2022-07-29T04:54:53;3.55;;;2.10;;
30896;SDS011;17597;52.246;21.054;2022-07-29T04:57:18;4.20;;;2.08;;
30896;SDS011;17597;52.246;21.054;2022-07-29T04:59:43;7.05;;;2.08;;
30896;SDS011;17597;52.246;21.054;2022-07-29T05:02:09;5.82;;;2.00;;
30896;SDS011;17597;52.246;21.054;2022-07-29T05:04:34;6.28;;;1.63;;
30896;SDS011;17597;52.246;21.054;2022-07-29T05:06:59;3.13;;;1.90;;
30896;SDS011;17597;52.246;21.054;2022-07-29T05:09:25;4.07;;;1.95;;
30896;SDS011;17597;52.246;21.054;2022-07-29T05:11:50;9.38;;;1.70;;
30896;SDS011;17597;52.246;21.054;2022-07-29T05:14:15;3.00;;;1.63;;
30896;SDS011;17597;52.246;21.054;2022-07-29T05:16:41;7.07;;;2.50;;
30896;SDS011;17597;52.246;21.054;2022-07-29T05:19:06;3.83;;;1.60;;
30896;SDS011;17597;52.246;21.054;2022-07-29T05:21:32;2.83;;;1.60;;
30896;SDS011;17597;52.246;21.054;2022-07-29T05:23:58;4.82;;;2.25;;
30896;SDS011;17597;52.246;21.054;2022-07-29T05:26:23;4.60;;;1.63;;
30896;SDS011;17597;52.246;21.054;2022-07-29T05:28:48;2.95;;;1.65;;
30896;SDS011;17597;52.246;21.054;2022-07-29T05:31:14;4.57;;;1.40;;
30896;SDS011;17597;52.246;21.054;2022-07-29T05:33:40;2.60;;;1.52;;
30896;SDS011;17597;52.246;21.054;2022-07-29T05:36:06;3.75;;;1.60;;
30896;SDS011;17597;52.246;21.054;2022-07-29T05:38:33;2.53;;;1.40;;
30896;SDS011;17597;52.246;21.054;2022-07-29T05:40:59;4.97;;;1.40;;
30896;SDS011;17597;52.246;21.054;2022-07-29T05:43:25;2.03;;;1.35;;
30896;SDS011;17597;52.246;21.054;2022-07-29T05:45:53;4.00;;;1.40;;
30896;SDS011;17597;52.246;21.054;2022-07-29T05:48:22;2.83;;;1.13;;
30896;SDS011;17597;52.246;21.054;2022-07-29T05:50:47;2.25;;;1.35;;
30896;SDS011;17597;52.246;21.054;2022-07-29T05:53:13;2.35;;;1.55;;
30896;SDS011;17597;52.246;21.054;2022-07-29T05:55:38;4.03;;;1.23;;
30896;SDS011;17597;52.246;21.054;2022-07-29T05:58:03;2.53;;;1.30;;
30896;SDS011;17597;52.246;21.054;2022-07-29T06:00:29;2.80;;;1.45;;
30896;SDS011;17597;52.246;21.054;2022-07-29T06:02:55;3.00;;;1.52;;
30896;SDS011;17597;52.246;21.054;2022-07-29T06:05:21;5.47;;;1.80;;
30896;SDS011;17597;52.246;21.054;2022-07-29T06:07:47;3.08;;;1.17;;
30896;SDS011;17597;52.246;21.054;2022-07-29T06:10:12;4.97;;;1.52;;
30896;SDS011;17597;52.246;21.054;2022-07-29T06:12:38;4.38;;;1.88;;
30896;SDS011;17597;52.246;21.054;2022-07-29T06:15:03;3.03;;;1.10;;
30896;SDS011;17597;52.246;21.054;2022-07-29T06:17:29;4.05;;;1.38;;
30896;SDS011;17597;52.246;21.054;2022-07-29T06:19:54;1.92;;;1.05;;
30896;SDS011;17597;52.246;21.054;2022-07-29T06:22:19;3.90;;;1.42;;
30896;SDS011;17597;52.246;21.054;2022-07-29T06:24:46;2.28;;;1.25;;
30896;SDS011;17597;52.246;21.054;2022-07-29T06:27:11;4.20;;;1.05;;
30896;SDS011;17597;52.246;21.054;2022-07-29T06:29:37;3.50;;;1.15;;
30896;SDS011;17597;52.246;21.054;2022-07-29T06:32:02;4.40;;;1.00;;
30896;SDS011;17597;52.246;21.054;2022-07-29T06:34:28;2.88;;;1.65;;
30896;SDS011;17597;52.246;21.054;2022-07-29T06:36:54;3.83;;;2.30;;
30896;SDS011;17597;52.246;21.054;2022-07-29T06:39:19;1.52;;;0.80;;
30896;SDS011;17597;52.246;21.054;2022-07-29T06:41:48;3.17;;;0.98;;
30896;SDS011;17597;52.246;21.054;2022-07-29T06:44:15;5.30;;;1.40;;
30896;SDS011;17597;52.246;21.054;2022-07-29T06:46:41;3.22;;;1.20;;
30896;SDS011;17597;52.246;21.054;2022-07-29T06:49:07;4.30;;;1.10;;
30896;SDS011;17597;52.246;21.054;2022-07-29T06:51:33;2.20;;;1.02;;
30896;SDS011;17597;52.246;21.054;2022-07-29T06:53:59;5.95;;;1.02;;
30896;SDS011;17597;52.246;21.054;2022-07-29T06:56:25;5.90;;;1.50;;
30896;SDS011;17597;52.246;21.054;2022-07-29T06:58:51;2.13;;;0.80;;
30896;SDS011;17597;52.246;21.054;2022-07-29T07:01:17;2.83;;;0.82;;
30896;SDS011;17597;52.246;21.054;2022-07-29T07:03:42;3.08;;;0.95;;
30896;SDS011;17597;52.246;21.054;2022-07-29T07:06:08;2.88;;;0.80;;
30896;SDS011;17597;52.246;21.054;2022-07-29T07:08:33;2.80;;;0.88;;
30896;SDS011;17597;52.246;21.054;2022-07-29T07:10:59;3.58;;;0.90;;
30896;SDS011;17597;52.246;21.054;2022-07-29T07:13:24;3.47;;;0.90;;
30896;SDS011;17597;52.246;21.054;2022-07-29T07:15:50;6.00;;;0.90;;
30896;SDS011;17597;52.246;21.054;2022-07-29T07:18:17;3.03;;;0.90;;
30896;SDS011;17597;52.246;21.054;2022-07-29T07:20:44;2.97;;;0.70;;
30896;SDS011;17597;52.246;21.054;2022-07-29T07:23:09;2.90;;;0.75;;
30896;SDS011;17597;52.246;21.054;2022-07-29T07:25:35;2.78;;;0.70;;
30896;SDS011;17597;52.246;21.054;2022-07-29T07:28:01;5.32;;;0.88;;
30896;SDS011;17597;52.246;21.054;2022-07-29T07:30:26;3.50;;;0.85;;
30896;SDS011;17597;52.246;21.054;2022-07-29T07:32:52;5.85;;;2.00;;
30896;SDS011;17597;52.246;21.054;2022-07-29T07:35:18;4.40;;;1.17;;
30896;SDS011;17597;52.246;21.054;2022-07-29T07:37:44;2.80;;;1.00;;
30896;SDS011;17597;52.246;21.054;2022-07-29T07:40:10;4.97;;;0.93;;
30896;SDS011;17597;52.246;21.054;2022-07-29T07:42:37;1.52;;;0.50;;
30896;SDS011;17597;52.246;21.054;2022-07-29T07:45:03;3.95;;;0.80;;
30896;SDS011;17597;52.246;21.054;2022-07-29T07:47:29;2.72;;;0.57;;
30896;SDS011;17597;52.246;21.054;2022-07-29T07:49:55;1.13;;;0.50;;
30896;SDS011;17597;52.246;21.054;2022-07-29T07:52:21;2.15;;;0.60;;
30896;SDS011;17597;52.246;21.054;2022-07-29T07:54:47;2.95;;;0.60;;
30896;SDS011;17597;52.246;21.054;2022-07-29T07:57:14;5.15;;;0.60;;
30896;SDS011;17597;52.246;21.054;2022-07-29T07:59:41;3.10;;;0.60;;
30896;SDS011;17597;52.246;21.054;2022-07-29T08:02:07;1.92;;;0.47;;
30896;SDS011;17597;52.246;21.054;2022-07-29T08:04:33;3.00;;;0.60;;
30896;SDS011;17597;52.246;21.054;2022-07-29T08:06:59;1.10;;;0.50;;
30896;SDS011;17597;52.246;21.054;2022-07-29T08:09:25;1.92;;;0.68;;
30896;SDS011;17597;52.246;21.054;2022-07-29T08:11:52;2.88;;;0.50;;
30896;SDS011;17597;52.246;21.054;2022-07-29T08:14:18;4.15;;;0.73;;
30896;SDS011;17597;52.246;21.054;2022-07-29T08:16:43;0.68;;;0.45;;
30896;SDS011;17597;52.246;21.054;2022-07-29T08:19:09;2.42;;;0.65;;
30896;SDS011;17597;52.246;21.054;2022-07-29T08:21:35;2.80;;;0.88;;
30896;SDS011;17597;52.246;21.054;2022-07-29T08:24:01;1.95;;;0.50;;
30896;SDS011;17597;52.246;21.054;2022-07-29T08:26:45;1.98;;;0.60;;
30896;SDS011;17597;52.246;21.054;2022-07-29T08:29:10;3.13;;;0.52;;
30896;SDS011;17597;52.246;21.054;2022-07-29T08:31:36;4.70;;;0.60;;
30896;SDS011;17597;52.246;21.054;2022-07-29T08:34:03;2.85;;;0.65;;
30896;SDS011;17597;52.246;21.054;2022-07-29T08:36:29;2.95;;;0.50;;
30896;SDS011;17597;52.246;21.054;2022-07-29T08:38:55;2.90;;;0.60;;
30896;SDS011;17597;52.246;21.054;2022-07-29T08:41:21;3.58;;;0.60;;
30896;SDS011;17597;52.246;21.054;2022-07-29T08:43:47;1.17;;;0.45;;
30896;SDS011;17597;52.246;21.054;2022-07-29T08:46:15;0.77;;;0.45;;
30896;SDS011;17597;52.246;21.054;2022-07-29T08:48:42;3.13;;;0.52;;
30896;SDS011;17597;52.246;21.054;2022-07-29T08:51:08;2.50;;;0.60;;
30896;SDS011;17597;52.246;21.054;2022-07-29T08:53:40;2.50;;;0.40;;
30896;SDS011;17597;52.246;21.054;2022-07-29T08:56:07;2.30;;;0.55;;
30896;SDS011;17597;52.246;21.054;2022-07-29T08:58:37;4.03;;;0.65;;
30896;SDS011;17597;52.246;21.054;2022-07-29T09:01:03;2.70;;;0.70;;
30896;SDS011;17597;52.246;21.054;2022-07-29T09:03:32;0.93;;;0.40;;
30896;SDS011;17597;52.246;21.054;2022-07-29T09:05:59;2.30;;;0.60;;
30896;SDS011;17597;52.246;21.054;2022-07-29T09:08:27;2.50;;;0.80;;
30896;SDS011;17597;52.246;21.054;2022-07-29T09:10:53;5.90;;;0.77;;
30896;SDS011;17597;52.246;21.054;2022-07-29T09:13:20;1.95;;;0.60;;
30896;SDS011;17597;52.246;21.054;2022-07-29T09:15:46;4.22;;;0.70;;
30896;SDS011;17597;52.246;21.054;2022-07-29T09:18:12;2.85;;;0.68;;
30896;SDS011;17597;52.246;21.054;2022-07-29T09:20:55;2.78;;;0.70;;
30896;SDS011;17597;52.246;21.054;2022-07-29T09:23:38;2.70;;;0.40;;
30896;SDS011;17597;52.246;21.054;2022-07-29T09:26:06;3.05;;;0.70;;
30896;SDS011;17597;52.246;21.054;2022-07-29T09:28:31;1.58;;;0.50;;
30896;SDS011;17597;52.246;21.054;2022-07-29T09:30:57;4.63;;;0.70;;
30896;SDS011;17597;52.246;21.054;2022-07-29T09:33:24;1.35;;;0.50;;
30896;SDS011;17597;52.246;21.054;2022-07-29T09:35:58;1.35;;;0.45;;
30896;SDS011;17597;52.246;21.054;2022-07-29T09:38:34;1.10;;;0.50;;
30896;SDS011;17597;52.246;21.054;2022-07-29T09:41:02;2.97;;;0.50;;
30896;SDS011;17597;52.246;21.054;2022-07-29T09:43:28;2.85;;;0.70;;
30896;SDS011;17597;52.246;21.054;2022-07-29T09:45:54;1.52;;;0.70;;
30896;SDS011;17597;52.246;21.054;2022-07-29T09:48:21;2.75;;;0.70;;
30896;SDS011;17597;52.246;21.054;2022-07-29T09:50:48;3.78;;;0.50;;
30896;SDS011;17597;52.246;21.054;2022-07-29T09:56:09;1.17;;;0.60;;
30896;SDS011;17597;52.246;21.054;2022-07-29T09:58:35;3.28;;;0.60;;
30896;SDS011;17597;52.246;21.054;2022-07-29T10:01:01;5.20;;;0.60;;
30896;SDS011;17597;52.246;21.054;2022-07-29T10:03:26;5.43;;;0.70;;
30896;SDS011;17597;52.246;21.054;2022-07-29T10:06:10;7.25;;;0.70;;
30896;SDS011;17597;52.246;21.054;2022-07-29T10:08:38;0.82;;;0.40;;
30896;SDS011;17597;52.246;21.054;2022-07-29T10:11:13;2.33;;;0.60;;
30896;SDS011;17597;52.246;21.054;2022-07-29T10:13:42;2.45;;;0.70;;
30896;SDS011;17597;52.246;21.054;2022-07-29T10:16:10;4.93;;;0.55;;
30896;SDS011;17597;52.246;21.054;2022-07-29T10:18:40;1.45;;;0.60;;
30896;SDS011;17597;52.246;21.054;2022-07-29T10:21:06;2.45;;;0.55;;
30896;SDS011;17597;52.246;21.054;2022-07-29T10:23:32;3.25;;;0.57;;
30896;SDS011;17597;52.246;21.054;2022-07-29T10:25:59;2.53;;;0.60;;
30896;SDS011;17597;52.246;21.054;2022-07-29T10:28:25;3.00;;;0.70;;
30896;SDS011;17597;52.246;21.054;2022-07-29T10:30:51;2.25;;;0.60;;
30896;SDS011;17597;52.246;21.054;2022-07-29T10:36:18;5.38;;;0.50;;
30896;SDS011;17597;52.246;21.054;2022-07-29T10:42:06;2.23;;;0.60;;
30896;SDS011;17597;52.246;21.054;2022-07-29T10:44:42;4.72;;;0.70;;
30896;SDS011;17597;52.246;21.054;2022-07-29T10:47:08;5.15;;;0.70;;
30896;SDS011;17597;52.246;21.054;2022-07-29T10:49:55;2.67;;;0.70;;
30896;SDS011;17597;52.246;21.054;2022-07-29T10:52:22;4.22;;;0.77;;
30896;SDS011;17597;52.246;21.054;2022-07-29T10:54:52;1.27;;;0.50;;
30896;SDS011;17597;52.246;21.054;2022-07-29T10:57:25;2.25;;;0.50;;
30896;SDS011;17597;52.246;21.054;2022-07-29T11:07:22;1.70;;;0.53;;
30896;SDS011;17597;52.246;21.054;2022-07-29T11:15:08;3.03;;;0.70;;
30896;SDS011;17597;52.246;21.054;2022-07-29T11:20:37;4.97;;;0.90;;
30896;SDS011;17597;52.246;21.054;2022-07-29T11:28:34;2.78;;;1.20;;
30896;SDS011;17597;52.246;21.054;2022-07-29T11:31:04;3.38;;;1.00;;
30896;SDS011;17597;52.246;21.054;2022-07-29T11:33:33;3.65;;;1.00;;
30896;SDS011;17597;52.246;21.054;2022-07-29T11:36:09;4.28;;;0.80;;
30896;SDS011;17597;52.246;21.054;2022-07-29T11:38:39;3.72;;;0.65;;
30896;SDS011;17597;52.246;21.054;2022-07-29T11:43:49;2.05;;;0.57;;
30896;SDS011;17597;52.246;21.054;2022-07-29T11:46:17;4.38;;;0.50;;
30896;SDS011;17597;52.246;21.054;2022-07-29T11:49:03;3.63;;;0.80;;
30896;SDS011;17597;52.246;21.054;2022-07-29T11:51:29;4.15;;;0.60;;
30896;SDS011;17597;52.246;21.054;2022-07-29T11:53:55;1.00;;;0.70;;
30896;SDS011;17597;52.246;21.054;2022-07-29T11:56:21;3.00;;;0.70;;
30896;SDS011;17597;52.246;21.054;2022-07-29T11:58:46;1.67;;;0.43;;
30896;SDS011;17597;52.246;21.054;2022-07-29T12:01:16;2.60;;;0.70;;
30896;SDS011;17597;52.246;21.054;2022-07-29T12:03:42;2.05;;;0.60;;
30896;SDS011;17597;52.246;21.054;2022-07-29T12:06:11;1.80;;;0.50;;
30896;SDS011;17597;52.246;21.054;2022-07-29T12:08:41;0.77;;;0.45;;
30896;SDS011;17597;52.246;21.054;2022-07-29T12:11:14;3.50;;;0.70;;
30896;SDS011;17597;52.246;21.054;2022-07-29T12:13:42;3.00;;;0.50;;
30896;SDS011;17597;52.246;21.054;2022-07-29T12:16:07;2.05;;;0.60;;
30896;SDS011;17597;52.246;21.054;2022-07-29T12:18:32;1.65;;;0.68;;
30896;SDS011;17597;52.246;21.054;2022-07-29T12:20:58;3.20;;;0.93;;
30896;SDS011;17597;52.246;21.054;2022-07-29T12:23:29;4.65;;;0.70;;
30896;SDS011;17597;52.246;21.054;2022-07-29T12:25:57;2.30;;;0.50;;
30896;SDS011;17597;52.246;21.054;2022-07-29T12:28:23;1.75;;;0.60;;
30896;SDS011;17597;52.246;21.054;2022-07-29T12:30:49;1.33;;;0.50;;
30896;SDS011;17597;52.246;21.054;2022-07-29T12:33:17;2.15;;;0.80;;
30896;SDS011;17597;52.246;21.054;2022-07-29T12:35:45;0.75;;;0.47;;
30896;SDS011;17597;52.246;21.054;2022-07-29T12:38:13;1.38;;;0.50;;
30896;SDS011;17597;52.246;21.054;2022-07-29T12:40:39;1.20;;;0.70;;
30896;SDS011;17597;52.246;21.054;2022-07-29T12:43:06;1.58;;;1.02;;
30896;SDS011;17597;52.246;21.054;2022-07-29T12:45:38;3.83;;;0.90;;
30896;SDS011;17597;52.246;21.054;2022-07-29T12:48:08;2.42;;;0.60;;
30896;SDS011;17597;52.246;21.054;2022-07-29T12:50:34;2.50;;;0.52;;
30896;SDS011;17597;52.246;21.054;2022-07-29T12:53:07;3.53;;;0.50;;
30896;SDS011;17597;52.246;21.054;2022-07-29T12:55:37;2.85;;;0.52;;
30896;SDS011;17597;52.246;21.054;2022-07-29T12:58:07;1.77;;;1.00;;
30896;SDS011;17597;52.246;21.054;2022-07-29T13:00:33;2.30;;;1.10;;
30896;SDS011;17597;52.246;21.054;2022-07-29T13:02:59;3.13;;;0.77;;
30896;SDS011;17597;52.246;21.054;2022-07-29T13:05:41;9.10;;;0.90;;
30896;SDS011;17597;52.246;21.054;2022-07-29T13:08:15;7.10;;;0.98;;
30896;SDS011;17597;52.246;21.054;2022-07-29T13:10:43;4.35;;;0.80;;
30896;SDS011;17597;52.246;21.054;2022-07-29T13:13:11;1.10;;;0.60;;
30896;SDS011;17597;52.246;21.054;2022-07-29T13:15:41;4.22;;;0.93;;
30896;SDS011;17597;52.246;21.054;2022-07-29T13:18:30;5.68;;;0.80;;
30896;SDS011;17597;52.246;21.054;2022-07-29T13:21:14;4.55;;;0.80;;
30896;SDS011;17597;52.246;21.054;2022-07-29T13:23:40;5.57;;;0.90;;
30896;SDS011;17597;52.246;21.054;2022-07-29T13:26:06;4.75;;;1.30;;
30896;SDS011;17597;52.246;21.054;2022-07-29T13:28:33;1.85;;;0.60;;
30896;SDS011;17597;52.246;21.054;2022-07-29T13:30:59;5.07;;;0.60;;
30896;SDS011;17597;52.246;21.054;2022-07-29T13:33:24;4.82;;;1.08;;
30896;SDS011;17597;52.246;21.054;2022-07-29T13:35:50;2.30;;;0.68;;
30896;SDS011;17597;52.246;21.054;2022-07-29T13:38:15;2.22;;;0.57;;
30896;SDS011;17597;52.246;21.054;2022-07-29T13:40:41;2.92;;;0.57;;
30896;SDS011;17597;52.246;21.054;2022-07-29T13:43:09;1.95;;;0.65;;
30896;SDS011;17597;52.246;21.054;2022-07-29T13:45:34;3.28;;;0.60;;
30896;SDS011;17597;52.246;21.054;2022-07-29T13:48:00;3.00;;;0.70;;
30896;SDS011;17597;52.246;21.054;2022-07-29T13:50:26;4.28;;;0.60;;
30896;SDS011;17597;52.246;21.054;2022-07-29T13:52:51;2.75;;;0.70;;
30896;SDS011;17597;52.246;21.054;2022-07-29T13:55:17;7.05;;;0.70;;
30896;SDS011;17597;52.246;21.054;2022-07-29T13:57:43;6.07;;;0.88;;
30896;SDS011;17597;52.246;21.054;2022-07-29T14:00:08;6.78;;;1.60;;
30896;SDS011;17597;52.246;21.054;2022-07-29T14:02:34;2.72;;;1.27;;
30896;SDS011;17597;52.246;21.054;2022-07-29T14:05:00;7.82;;;3.70;;
30896;SDS011;17597;52.246;21.054;2022-07-29T14:07:25;2.95;;;0.60;;
30896;SDS011;17597;52.246;21.054;2022-07-29T14:09:51;3.60;;;0.60;;
30896;SDS011;17597;52.246;21.054;2022-07-29T14:12:17;3.67;;;0.70;;
30896;SDS011;17597;52.246;21.054;2022-07-29T14:14:42;4.82;;;0.63;;
30896;SDS011;17597;52.246;21.054;2022-07-29T14:17:08;1.05;;;0.50;;
30896;SDS011;17597;52.246;21.054;2022-07-29T14:19:34;4.03;;;0.50;;
30896;SDS011;17597;52.246;21.054;2022-07-29T14:22:01;1.65;;;0.70;;
30896;SDS011;17597;52.246;21.054;2022-07-29T14:24:28;3.53;;;0.77;;
30896;SDS011;17597;52.246;21.054;2022-07-29T14:26:53;3.55;;;0.88;;
30896;SDS011;17597;52.246;21.054;2022-07-29T14:29:19;3.08;;;0.80;;
30896;SDS011;17597;52.246;21.054;2022-07-29T14:31:44;2.35;;;0.60;;
30896;SDS011;17597;52.246;21.054;2022-07-29T14:34:09;2.83;;;0.60;;
30896;SDS011;17597;52.246;21.054;2022-07-29T14:36:35;3.90;;;0.50;;
30896;SDS011;17597;52.246;21.054;2022-07-29T14:39:00;2.25;;;0.68;;
30896;SDS011;17597;52.246;21.054;2022-07-29T14:41:25;4.85;;;1.70;;
30896;SDS011;17597;52.246;21.054;2022-07-29T14:43:53;4.95;;;0.75;;
30896;SDS011;17597;52.246;21.054;2022-07-29T14:46:18;2.88;;;0.57;;
30896;SDS011;17597;52.246;21.054;2022-07-29T14:48:44;2.58;;;0.80;;
30896;SDS011;17597;52.246;21.054;2022-07-29T14:51:09;1.38;;;0.60;;
30896;SDS011;17597;52.246;21.054;2022-07-29T14:53:35;2.22;;;0.57;;
30896;SDS011;17597;52.246;21.054;2022-07-29T14:56:01;3.40;;;0.80;;
30896;SDS011;17597;52.246;21.054;2022-07-29T14:58:26;2.15;;;0.68;;
30896;SDS011;17597;52.246;21.054;2022-07-29T15:00:51;2.50;;;0.80;;
30896;SDS011;17597;52.246;21.054;2022-07-29T15:03:17;3.65;;;0.60;;
30896;SDS011;17597;52.246;21.054;2022-07-29T15:05:42;3.67;;;1.60;;
30896;SDS011;17597;52.246;21.054;2022-07-29T15:08:08;2.30;;;0.60;;
30896;SDS011;17597;52.246;21.054;2022-07-29T15:10:33;1.60;;;0.80;;
30896;SDS011;17597;52.246;21.054;2022-07-29T15:12:59;2.60;;;0.50;;
30896;SDS011;17597;52.246;21.054;2022-07-29T15:15:24;2.45;;;0.80;;